Relevés horaires Matro (Suisse)


Relevés horaires à Matro - Mercredi 01 Mai 2019
Heure UTC1 Température [°C] Vent [km/h] Hum. [%] Pres.4 [hPa] Visi. [Km] Nébu. [octa] Préc.5 [mm] Cond.
2m. Res. Ros. Dir.2 Vit. Moy. Raf.3
23:00 2.4 2.4 -5.9 NNO 1.9 -- 5.6 54 850(-0.3/3h) -- -- -- --
22:00 3.2 3.2 -7.9 N 3.7 -- 11.1 44 850(0.3/3h) -- -- -- --
21:00 3.5 1.5 -9.7 N 7.4 -- 27.8 37 850(0.7/3h) -- -- -- --
20:00 3.7 0.2 -9.9 N 14.8 -- 25.9 36 850(0.8/3h) -- -- -- --
19:00 4.3 0.1 -10.0 N 20.4 -- 27.8 34 850(0.3/3h) -- -- -- --
18:00 5.3 2.8 -12.4 NO 11.1 -- 29.6 26 850(0.1/3h) -- -- -- --
17:00 6.2 4.2 -12.0 OSO 9.3 -- 24.1 26 850(-0.3/3h) -- -- -- --
16:00 7.8 6.1 -8.7 SO 9.3 -- 29.6 30 850(-0.5/3h) -- -- -- --
15:00 6.7 4.8 -10.5 S 9.3 -- 25.9 28 850(-0.6/3h) -- -- -- --
14:00 6.2 4.2 -12.1 SSE 9.3 -- 25.9 25 850(-0.3/3h) -- -- -- --
13:00 6.3 4.8 -9.9 SSE 7.4 -- 18.5 30 850(-0.2/3h) -- -- -- --
12:00 5.3 4.2 -9.9 SSO 5.6 -- 24.1 32 850(0.2/3h) -- -- -- --
11:00 5.3 4.2 -10.1 SO 5.6 -- 18.5 32 850(0.5/3h) -- -- -- --
10:00 4.2 2.9 -10.8 SSO 5.6 -- 16.7 33 850(0.9/3h) -- -- -- --
10:00 4.2 2.9 -10.8 SSO 5.6 -- 16.7 33 850(0.9/3h) -- -- -- --
09:00 3.1 3.1 -9.5 ENE 3.7 -- 13.0 39 850(0.7/3h) -- -- -- --
09:00 3.1 3.1 -9.5 ENE 3.7 -- 13.0 39 850(0.7/3h) -- -- -- --
08:00 2.4 2.4 -8.3 ESE 1.9 -- 11.1 45 850(0.8/3h) -- -- -- --
08:00 2.4 2.4 -8.3 ESE 1.9 -- 11.1 45 850(0.8/3h) -- -- -- --
07:00 1.9 1.9 -10.4 N 1.9 -- 7.4 40 850(0.7/3h) -- -- -- --
06:00 1.9 -0.3 -18.4 N 7.4 -- 29.6 20 850(0.5/3h) -- -- -- --
05:00 1.4 -1.9 -16.7 NO 11.1 -- 14.8 24 850(-0.1/3h) -- -- -- --
04:00 1.1 -1.8 -18.7 NO 9.3 -- 16.7 21 850(-0.5/3h) -- -- -- --
04:00 1.1 -1.8 -18.7 NO 9.3 -- 16.7 21 850(-0.5/3h) -- -- -- --

1 Coordinated Universal Time. Actuellement il est 01:00 locale et 23:00 UTC.

2 Le vent souffle depuis la direction indiquée vers la direction oposée.

3 Les rafales max. sont disponible 40 min après l'heure du relevé.

4 Pour les stations d'altitude (plus de 600m) le géopotentiel du niveau le plus proche de la pression obligatoire est indiqué.

5 Les stations disposant d'un diffuseur peuvent indiquer "trace". Cela signifie que des précipitations ont touchés le sol mais que la quantité est inférieure à 0.1 mm.

Copyright

Les données affichées sur cette page sont la propriété exclusive de Météo Suisse.

Récapitulatif de la journée
Température [°C] Vent [km/h] Ensoleillement4 [h] Precipitations totale5 [mm] Pression [Hpa]
Min1 Max.2 Moy.3 Max. Min Max.
-0.9 7.9 0 29.6 13 h 6 min 0 850.0 850.0

1 Température minimale relevée entre 18:00 UTC la veille et 18:00 UTC le jour donné.

2 Température maximale relevée entre 06:00 UTC le jour donné et 06:00 UTC le lendemain.

3 Vent moyen de la journée basé sur les relevés horaires.

4 Ensoleillement en heures relevé entre 06:00 UTC la veille et 06:00 UTC le jour donné.

5 Précipitations totales tombées entre 06:00 UTC la jour donné et 06:00 UTC le lendemain.

Graphiques horaires